Time;durP1;ratioP1;P1;durP2;ratioP2;P2;SDS_P1;SDS_P2;PMS_P1;PMS_P2;Temp;Humidity;BMP_temperature;BMP_pressure;BME280_temperature;BME280_humidity;BME280_pressure;Samples;Min_cycle;Max_cycle;Signal;HPM_P1;HPM_P2
2023/01/15 00:00:16;;;;;;;0.73;0.60;;;;;;;-144.22;100.00;60274.75;6259709;28;20233;-44
2023/01/15 00:03:19;;;;;;;3.53;0.70;;;;;;;-144.22;100.00;60274.75;6257077;28;20773;-44
2023/01/15 00:06:23;;;;;;;1.27;0.80;;;;;;;6.17;100.00;60274.75;6260177;28;20249;-44
2023/01/15 00:09:26;;;;;;;1.17;0.90;;;;;;;2.55;100.00;60274.75;6261634;28;20592;-44
2023/01/15 00:12:28;;;;;;;2.33;0.63;;;;;;;-144.22;100.00;60274.75;6260356;28;20266;-44
2023/01/15 00:15:30;;;;;;;0.93;0.67;;;;;;;-144.22;100.00;60274.75;6260690;28;20237;-43
2023/01/15 00:18:32;;;;;;;3.27;0.80;;;;;;;-144.22;100.00;60274.75;6256719;28;20232;-44
2023/01/15 00:21:34;;;;;;;1.60;0.80;;;;;;;-144.22;100.00;60274.75;6256002;28;20299;-43
2023/01/15 00:28:06;;;;;;;1.70;0.80;;;;;;;-144.22;100.00;60274.75;6257502;28;20242;-43
2023/01/15 00:31:08;;;;;;;1.50;0.60;;;;;;;11.36;100.00;60274.75;6261177;28;20324;-43
2023/01/15 00:34:10;;;;;;;2.57;0.77;;;;;;;11.36;100.00;60274.75;6257577;28;20240;-43
2023/01/15 00:37:13;;;;;;;1.10;0.60;;;;;;;-144.22;100.00;60274.75;6260346;28;20671;-43
2023/01/15 00:40:18;;;;;;;7.03;4.87;;;;;;;-144.22;100.00;60274.75;6242081;28;20243;-45
2023/01/15 00:43:20;;;;;;;1.40;1.07;;;;;;;11.36;100.00;60274.75;6242544;28;20236;-43
2023/01/15 00:46:23;;;;;;;1.40;1.10;;;;;;;-144.22;100.00;60274.75;6259245;28;20329;-44
2023/01/15 00:49:25;;;;;;;0.97;0.63;;;;;;;-144.22;100.00;60274.75;6260614;28;20289;-44
2023/01/15 00:52:30;;;;;;;2.00;0.70;;;;;;;-144.22;100.00;60274.75;6260308;28;20279;-44
2023/01/15 00:55:33;;;;;;;2.40;0.60;;;;;;;-144.22;100.00;60274.75;6258466;28;20232;-44
2023/01/15 00:58:38;;;;;;;0.70;0.70;;;;;;;188.01;100.00;60274.75;6259538;28;20242;-43
2023/01/15 01:01:40;;;;;;;1.33;0.70;;;;;;;-144.22;100.00;60274.75;6249435;28;20320;-44
2023/01/15 01:04:43;;;;;;;0.63;0.60;;;;;;;-144.22;100.00;60274.75;6260112;28;20634;-44
2023/01/15 01:07:45;;;;;;;1.40;0.90;;;;;;;-144.22;100.00;60274.75;6259499;28;20244;-45
2023/01/15 01:10:47;;;;;;;1.63;0.70;;;;;;;-144.22;100.00;60274.75;6259795;28;20320;-43
2023/01/15 01:13:49;;;;;;;0.50;0.50;;;;;;;-144.22;100.00;60274.75;6261381;28;20237;-43
2023/01/15 01:16:52;;;;;;;0.60;0.60;;;;;;;11.36;100.00;60274.75;6243675;28;20226;-44
2023/01/15 01:19:54;;;;;;;1.73;0.67;;;;;;;-144.22;100.00;60274.75;6260138;28;20328;-45
2023/01/15 01:22:56;;;;;;;1.17;0.70;;;;;;;-144.22;100.00;60274.75;6224768;28;20415;-44
2023/01/15 01:25:58;;;;;;;1.57;0.87;;;;;;;21.74;100.00;60274.75;6258376;28;20599;-43
2023/01/15 01:29:01;;;;;;;1.57;0.80;;;;;;;21.74;100.00;60274.75;6259421;28;20829;-44
2023/01/15 01:32:04;;;;;;;1.53;0.97;;;;;;;188.01;100.00;60274.75;6243761;28;20343;-44
2023/01/15 01:35:07;;;;;;;1.03;0.80;;;;;;;3.58;100.00;60274.75;6261745;28;20238;-43
2023/01/15 01:38:09;;;;;;;0.70;0.50;;;;;;;-144.22;100.00;60274.75;6258026;28;20238;-43
2023/01/15 01:41:13;;;;;;;0.90;0.60;;;;;;;-144.22;100.00;60274.75;6242425;28;20585;-43
2023/01/15 01:44:33;;;;;;;1.10;0.67;;;;;;;188.01;100.00;60274.75;6259153;28;20229;-43
2023/01/15 01:47:35;;;;;;;0.83;0.70;;;;;;;188.01;100.00;60274.75;6255099;28;20261;-43
2023/01/15 01:50:39;;;;;;;0.80;0.60;;;;;;;-144.22;100.00;60274.75;6240394;28;20234;-43
2023/01/15 01:53:42;;;;;;;1.07;0.67;;;;;;;-144.22;100.00;60274.75;6257852;28;20227;-45
2023/01/15 01:56:44;;;;;;;0.93;0.70;;;;;;;11.36;100.00;60274.75;6241066;28;20241;-44
2023/01/15 01:59:47;;;;;;;0.87;0.80;;;;;;;188.01;100.00;60274.75;6243228;28;20266;-44
2023/01/15 02:02:51;;;;;;;0.97;0.80;;;;;;;188.01;100.00;60274.75;6258636;28;20310;-43
2023/01/15 02:05:57;;;;;;;2.43;1.10;;;;;;;21.74;100.00;60274.75;6260489;28;20328;-44
2023/01/15 02:09:03;;;;;;;0.90;0.70;;;;;;;-144.22;100.00;60274.75;6240902;28;20339;-43
2023/01/15 02:12:24;;;;;;;1.37;0.70;;;;;;;-144.22;100.00;60274.75;6240554;28;20210;-43
2023/01/15 02:15:49;;;;;;;2.10;0.80;;;;;;;188.01;100.00;60274.75;6257105;28;20598;-43
2023/01/15 02:18:54;;;;;;;1.27;0.83;;;;;;;-144.22;100.00;60274.75;6243213;28;20246;-43
2023/01/15 02:22:02;;;;;;;1.70;0.70;;;;;;;-144.22;100.00;60274.75;6262640;28;20292;-44
2023/01/15 02:25:18;;;;;;;1.57;1.00;;;;;;;-144.22;100.00;60274.75;6248284;28;20534;-44
2023/01/15 02:28:26;;;;;;;2.27;0.77;;;;;;;-144.22;100.00;60274.75;6257517;28;20239;-43
2023/01/15 02:31:37;;;;;;;1.40;0.80;;;;;;;188.01;100.00;60274.75;6242421;28;20235;-43
2023/01/15 02:34:48;;;;;;;0.90;0.70;;;;;;;-144.22;100.00;60274.75;6257678;28;20238;-43
2023/01/15 02:37:58;;;;;;;1.07;0.70;;;;;;;3.58;100.00;60274.75;6257893;28;20249;-43
2023/01/15 02:41:04;;;;;;;1.80;1.00;;;;;;;-144.22;100.00;60274.75;6246901;28;20775;-44
2023/01/15 02:44:15;;;;;;;1.13;0.73;;;;;;;-144.22;100.00;60274.75;6244876;28;20335;-42
2023/01/15 02:47:24;;;;;;;1.93;0.90;;;;;;;-144.22;100.00;60274.75;6240638;28;20751;-44
2023/01/15 02:50:31;;;;;;;1.20;0.70;;;;;;;2.46;100.00;60274.75;6257780;28;20226;-43
2023/01/15 02:53:38;;;;;;;5.67;1.67;;;;;;;-144.22;100.00;60274.75;6259749;28;20715;-43
2023/01/15 02:56:44;;;;;;;1.73;0.93;;;;;;;-144.22;100.00;60274.75;6258381;28;20238;-44
2023/01/15 02:59:47;;;;;;;3.00;1.30;;;;;;;-144.22;100.00;60274.75;6246256;28;20308;-44
2023/01/15 03:03:25;;;;;;;4.40;1.40;;;;;;;-144.22;100.00;60274.75;6261430;28;20582;-43
2023/01/15 03:06:40;;;;;;;1.50;1.03;;;;;;;-144.22;100.00;60274.75;6197622;28;20229;-44
2023/01/15 03:09:43;;;;;;;2.00;1.30;;;;;;;2.37;100.00;60274.75;6242834;28;20240;-43
2023/01/15 03:13:01;;;;;;;2.53;1.07;;;;;;;-144.22;100.00;60274.75;6251745;28;20264;-43
2023/01/15 03:16:49;;;;;;;1.90;1.10;;;;;;;-144.22;100.00;60274.75;6246294;28;20270;-44
2023/01/15 03:19:58;;;;;;;2.33;1.07;;;;;;;188.01;100.00;60274.75;6239135;28;20235;-44
2023/01/15 03:23:08;;;;;;;3.23;1.23;;;;;;;2.24;100.00;60274.75;6248495;28;20241;-43
2023/01/15 03:26:12;;;;;;;4.37;1.37;;;;;;;2.21;100.00;60274.75;6247682;28;20662;-44
2023/01/15 03:29:18;;;;;;;3.30;1.40;;;;;;;3.58;100.00;60274.75;6251273;28;20320;-45
2023/01/15 03:32:22;;;;;;;2.03;1.83;;;;;;;2.17;100.00;60274.75;6246261;28;20236;-44
2023/01/15 03:35:48;;;;;;;4.60;2.10;;;;;;;2.16;100.00;60274.75;6261145;28;20724;-43
2023/01/15 03:39:13;;;;;;;5.07;2.43;;;;;;;2.11;100.00;60274.75;6245189;28;20239;-43
2023/01/15 03:42:37;;;;;;;6.33;2.10;;;;;;;-144.22;100.00;60274.75;6243841;28;20712;-43
2023/01/15 03:45:47;;;;;;;3.30;2.33;;;;;;;2.15;100.00;60274.75;6241406;28;20239;-43
2023/01/15 03:49:15;;;;;;;4.83;2.87;;;;;;;2.15;100.00;60274.75;6264249;28;20680;-43
2023/01/15 03:52:29;;;;;;;3.50;2.40;;;;;;;2.15;100.00;60274.75;6248293;28;20227;-44
2023/01/15 03:55:42;;;;;;;2.93;2.23;;;;;;;11.36;100.00;60274.75;6245061;28;20238;-44
2023/01/15 03:59:03;;;;;;;4.67;2.83;;;;;;;188.01;100.00;60274.75;6260500;28;20247;-43
2023/01/15 04:02:24;;;;;;;3.07;2.43;;;;;;;3.58;100.00;60274.75;6252983;28;20579;-43
2023/01/15 04:05:28;;;;;;;4.00;2.70;;;;;;;2.21;100.00;60274.75;6260115;28;20269;-44
2023/01/15 04:08:38;;;;;;;3.20;2.40;;;;;;;2.23;100.00;60274.75;6241514;28;20339;-43
2023/01/15 04:11:41;;;;;;;4.63;2.33;;;;;;;2.22;100.00;60274.75;6260153;28;20617;-43
2023/01/15 04:14:43;;;;;;;4.27;2.53;;;;;;;2.22;100.00;60274.75;6245778;28;21085;-43
2023/01/15 04:17:50;;;;;;;3.43;2.60;;;;;;;2.23;100.00;60274.75;6242844;28;20240;-43
2023/01/15 04:20:55;;;;;;;2.77;2.40;;;;;;;2.24;100.00;60274.75;6248236;28;20701;-43
2023/01/15 04:23:57;;;;;;;3.43;2.00;;;;;;;-144.22;100.00;60274.75;6261948;28;20244;-43
2023/01/15 04:27:00;;;;;;;4.80;3.17;;;;;;;2.26;100.00;60274.75;6258831;28;20233;-43
2023/01/15 04:30:02;;;;;;;2.87;2.27;;;;;;;-144.22;100.00;60274.75;6258453;28;20691;-43
2023/01/15 04:33:04;;;;;;;3.40;2.87;;;;;;;-144.22;100.00;60274.75;6262425;28;20253;-43
2023/01/15 04:36:07;;;;;;;3.37;2.07;;;;;;;-144.22;100.00;60274.75;6261005;28;20330;-45
2023/01/15 04:39:10;;;;;;;3.53;2.30;;;;;;;2.28;100.00;60274.75;6258473;28;20624;-44
2023/01/15 04:45:34;;;;;;;2.77;2.10;;;;;;;-144.22;100.00;60274.75;6262344;28;20238;-43
2023/01/15 04:48:38;;;;;;;3.13;2.50;;;;;;;-144.22;100.00;60274.75;6244642;28;20238;-43
2023/01/15 04:51:41;;;;;;;3.57;2.30;;;;;;;-144.22;100.00;60274.75;6260347;28;20275;-43
2023/01/15 04:54:43;;;;;;;2.90;2.33;;;;;;;-144.22;100.00;60274.75;6259902;28;20240;-43
2023/01/15 04:57:48;;;;;;;2.93;2.10;;;;;;;-144.22;100.00;60274.75;6257739;28;20235;-43
2023/01/15 05:00:50;;;;;;;2.83;2.53;;;;;;;-144.22;100.00;60274.75;6259385;28;20238;-43
2023/01/15 05:03:53;;;;;;;3.57;2.00;;;;;;;-144.22;100.00;60274.75;6260234;28;20280;-44
2023/01/15 05:06:55;;;;;;;3.27;2.10;;;;;;;-144.22;100.00;60274.75;6259511;28;20276;-43
2023/01/15 05:09:57;;;;;;;3.37;2.33;;;;;;;-144.22;100.00;60274.75;6261617;28;20294;-43
2023/01/15 05:12:59;;;;;;;3.80;2.53;;;;;;;-144.22;100.00;60274.75;6259530;28;20232;-43
2023/01/15 05:16:09;;;;;;;3.17;2.30;;;;;;;-144.22;100.00;60274.75;6257084;28;20368;-44
2023/01/15 05:19:12;;;;;;;3.47;2.13;;;;;;;-144.22;100.00;60274.75;6259593;28;20542;-43
2023/01/15 05:22:15;;;;;;;3.50;2.40;;;;;;;188.01;100.00;60274.75;6261160;28;20348;-43
2023/01/15 05:25:18;;;;;;;4.03;2.10;;;;;;;-144.22;100.00;60274.75;6257475;28;20245;-43
2023/01/15 05:28:21;;;;;;;3.70;2.60;;;;;;;-144.22;100.00;60274.75;6260605;28;20320;-43
2023/01/15 05:31:25;;;;;;;4.17;2.70;;;;;;;-144.22;100.00;60274.75;6259555;28;20732;-44
2023/01/15 05:34:27;;;;;;;4.67;2.60;;;;;;;-144.22;100.00;60274.75;6257809;28;20248;-43
2023/01/15 05:37:30;;;;;;;3.23;2.30;;;;;;;-144.22;100.00;60274.75;6258748;28;20230;-43
2023/01/15 05:40:32;;;;;;;4.40;2.70;;;;;;;-144.22;100.00;60274.75;6260398;28;20452;-43
2023/01/15 05:43:34;;;;;;;3.87;2.80;;;;;;;-144.22;100.00;60274.75;6257535;28;20245;-42
2023/01/15 05:46:38;;;;;;;4.90;2.60;;;;;;;-144.22;100.00;60274.75;6258658;28;20240;-43
2023/01/15 05:49:41;;;;;;;3.37;2.47;;;;;;;-144.22;100.00;60274.75;6259845;28;20236;-43
2023/01/15 05:52:43;;;;;;;5.43;3.33;;;;;;;-144.22;100.00;60274.75;6257603;28;20604;-43
2023/01/15 05:55:47;;;;;;;3.97;2.77;;;;;;;-144.22;100.00;60274.75;6241642;28;20265;-44
2023/01/15 05:58:49;;;;;;;4.50;2.03;;;;;;;6.17;100.00;60274.75;6258750;28;20245;-43
2023/01/15 06:01:52;;;;;;;4.57;2.53;;;;;;;188.01;100.00;60274.75;6257374;28;20252;-43
2023/01/15 06:04:54;;;;;;;7.50;3.10;;;;;;;-144.22;100.00;60274.75;6246737;28;20242;-43
2023/01/15 06:07:56;;;;;;;4.50;3.10;;;;;;;-144.22;100.00;60274.75;6258814;28;20255;-43
2023/01/15 06:11:02;;;;;;;3.90;2.87;;;;;;;188.01;100.00;60274.75;6261828;28;20235;-43
2023/01/15 06:14:04;;;;;;;5.20;3.50;;;;;;;-144.22;100.00;60274.75;6260425;28;20368;-43
2023/01/15 06:17:06;;;;;;;6.67;3.17;;;;;;;-144.22;100.00;60274.75;6257983;28;20698;-44
2023/01/15 06:20:12;;;;;;;4.67;3.00;;;;;;;11.36;100.00;60274.75;6257562;28;20215;-44
2023/01/15 06:23:16;;;;;;;5.30;3.47;;;;;;;21.74;100.00;60274.75;6259305;28;20316;-44
2023/01/15 06:26:18;;;;;;;5.30;3.03;;;;;;;11.36;100.00;60274.75;6262243;28;20364;-43
2023/01/15 06:29:22;;;;;;;7.50;3.40;;;;;;;-144.22;100.00;60274.75;6263168;28;20240;-43
2023/01/15 06:32:25;;;;;;;3.77;2.97;;;;;;;-144.22;100.00;60274.75;6261355;28;20371;-43
2023/01/15 06:35:27;;;;;;;3.37;2.60;;;;;;;188.01;100.00;60274.75;6261954;28;20327;-43
2023/01/15 06:38:29;;;;;;;3.90;2.73;;;;;;;-144.22;100.00;60274.75;6260485;28;20321;-43
2023/01/15 06:48:13;;;;;;;3.03;2.53;;;;;;;-144.22;100.00;60274.75;6262635;28;21226;-44
2023/01/15 06:51:18;;;;;;;3.63;2.80;;;;;;;-144.22;100.00;60274.75;6260617;28;20217;-43
2023/01/15 06:54:20;;;;;;;3.73;2.60;;;;;;;-144.22;100.00;60274.75;6262494;28;20218;-43
2023/01/15 06:57:22;;;;;;;4.07;2.70;;;;;;;8.77;100.00;60274.75;6262455;28;20233;-43
2023/01/15 07:00:24;;;;;;;2.80;2.20;;;;;;;21.74;100.00;60274.75;6243859;28;20237;-43
2023/01/15 07:03:27;;;;;;;4.03;2.57;;;;;;;188.01;100.00;60274.75;6260680;28;20231;-43
2023/01/15 07:06:30;;;;;;;4.57;2.97;;;;;;;188.01;100.00;60274.75;6261939;28;20317;-42
2023/01/15 07:09:33;;;;;;;4.97;3.07;;;;;;;188.01;100.00;60274.75;6262458;28;20725;-43
2023/01/15 07:12:35;;;;;;;5.70;3.47;;;;;;;-144.22;100.00;60274.75;6261472;28;20226;-43
2023/01/15 07:15:41;;;;;;;8.47;3.43;;;;;;;-144.22;100.00;60274.75;6259956;28;20254;-43
2023/01/15 07:18:43;;;;;;;4.60;3.40;;;;;;;-144.22;100.00;60274.75;6257773;28;20245;-43
2023/01/15 07:21:45;;;;;;;5.67;3.37;;;;;;;3.04;100.00;60274.75;6260934;28;21111;-45
2023/01/15 07:24:48;;;;;;;4.93;3.80;;;;;;;-144.22;100.00;60274.75;6261566;28;20237;-44
2023/01/15 07:27:50;;;;;;;5.43;2.97;;;;;;;-144.22;100.00;60274.75;6260122;28;20231;-46
2023/01/15 07:30:57;;;;;;;4.67;3.70;;;;;;;-144.22;100.00;60274.75;6258751;28;20246;-44
2023/01/15 07:34:00;;;;;;;6.27;3.73;;;;;;;11.36;100.00;60274.75;6256731;28;20264;-44
2023/01/15 07:37:02;;;;;;;8.43;4.83;;;;;;;188.01;100.00;60274.75;6260754;28;20284;-44
2023/01/15 07:40:05;;;;;;;8.63;4.23;;;;;;;3.09;100.00;60274.75;6262361;28;20422;-44
2023/01/15 07:49:53;;;;;;;6.53;4.60;;;;;;;-144.22;100.00;60274.75;6260730;28;20321;-44
2023/01/15 07:52:55;;;;;;;7.50;4.47;;;;;;;-144.22;100.00;60274.75;6262386;28;20252;-44
2023/01/15 07:55:58;;;;;;;8.63;4.77;;;;;;;-144.22;100.00;60274.75;6243769;28;20346;-44
2023/01/15 07:59:00;;;;;;;6.13;4.30;;;;;;;-144.22;100.00;60274.75;6260422;28;20253;-44
2023/01/15 08:02:02;;;;;;;5.50;4.37;;;;;;;-144.22;100.00;60274.75;6262933;28;20228;-43
2023/01/15 08:05:06;;;;;;;7.63;5.00;;;;;;;177.61;100.00;60274.75;6264077;28;20309;-43
2023/01/15 08:08:17;;;;;;;5.80;4.37;;;;;;;3.27;100.00;78567.00;6248277;28;20238;-43
2023/01/15 08:18:01;;;;;;;8.07;5.07;;;;;;;188.01;100.00;60274.75;6262551;28;20234;-44
2023/01/15 08:21:04;;;;;;;7.67;5.43;;;;;;;188.01;100.00;60274.75;6260700;28;20208;-43
2023/01/15 08:24:06;;;;;;;7.10;5.13;;;;;;;21.74;100.00;60274.75;6261799;28;20215;-44
2023/01/15 08:27:08;;;;;;;6.90;5.00;;;;;;;188.01;100.00;60274.75;6260754;28;20214;-43
2023/01/15 08:30:14;;;;;;;6.47;4.57;;;;;;;11.36;100.00;60274.75;6259573;28;20305;-44
2023/01/15 08:33:19;;;;;;;6.03;4.47;;;;;;;188.01;100.00;60274.75;6258623;28;20342;-43
2023/01/15 08:36:21;;;;;;;5.97;4.53;;;;;;;177.61;100.00;60274.75;6261501;28;20241;-43
2023/01/15 08:39:23;;;;;;;6.07;4.47;;;;;;;11.36;100.00;60274.75;6266523;28;20234;-44
2023/01/15 08:42:25;;;;;;;5.37;4.07;;;;;;;188.01;100.00;60274.75;6261389;28;20306;-43
2023/01/15 08:45:28;;;;;;;6.57;4.50;;;;;;;-144.22;100.00;60274.75;6264420;28;20238;-43
2023/01/15 08:48:31;;;;;;;5.83;3.97;;;;;;;-144.22;100.00;60274.75;6257593;28;20230;-43
2023/01/15 08:51:33;;;;;;;7.00;4.00;;;;;;;188.01;100.00;60274.75;6260684;28;20296;-43
2023/01/15 08:54:35;;;;;;;5.33;3.77;;;;;;;-144.22;100.00;60274.75;6258701;28;20790;-44
2023/01/15 08:57:37;;;;;;;6.03;3.80;;;;;;;-144.22;100.00;60274.75;6258932;28;20261;-43
2023/01/15 09:00:40;;;;;;;4.60;3.57;;;;;;;4.87;100.00;60274.75;6244268;28;20235;-44
2023/01/15 09:03:42;;;;;;;5.90;3.93;;;;;;;177.61;100.00;60274.75;6260627;28;20713;-43
2023/01/15 09:06:45;;;;;;;4.70;3.57;;;;;;;177.61;100.00;60274.75;6258502;28;20572;-43
2023/01/15 09:09:48;;;;;;;4.60;3.30;;;;;;;-144.22;100.00;60274.75;6260765;28;20526;-43
2023/01/15 09:12:50;;;;;;;4.23;2.70;;;;;;;-144.22;100.00;60274.75;6258735;28;20238;-43
2023/01/15 09:15:52;;;;;;;5.80;3.27;;;;;;;21.74;100.00;60274.75;6261542;28;20686;-43
2023/01/15 09:18:54;;;;;;;5.10;3.13;;;;;;;-144.22;100.00;60274.75;6259017;28;20226;-43
2023/01/15 09:21:58;;;;;;;5.37;3.50;;;;;;;177.61;100.00;60274.75;6258497;28;20263;-44
2023/01/15 09:25:01;;;;;;;7.27;3.57;;;;;;;4.87;100.00;60274.75;6257275;28;20245;-43
2023/01/15 09:28:03;;;;;;;7.73;4.30;;;;;;;-144.22;100.00;60274.75;6258263;28;20295;-43
2023/01/15 09:31:05;;;;;;;6.73;4.03;;;;;;;11.36;100.00;60274.75;6259082;28;20304;-43
2023/01/15 09:34:07;;;;;;;9.07;4.20;;;;;;;177.61;100.00;60274.75;6257348;28;20247;-44
2023/01/15 09:37:09;;;;;;;4.90;3.67;;;;;;;21.74;100.00;60274.75;6258234;28;20238;-43
2023/01/15 09:40:33;;;;;;;5.90;3.93;;;;;;;177.61;100.00;60274.75;6256350;28;20644;-43
2023/01/15 09:44:03;;;;;;;5.00;4.17;;;;;;;-144.22;100.00;60274.75;6252487;28;20370;-43
2023/01/15 09:47:15;;;;;;;4.27;3.53;;;;;;;21.74;100.00;60274.75;6255611;28;20258;-43
2023/01/15 09:50:54;;;;;;;7.30;4.57;;;;;;;-144.22;100.00;60274.75;6255964;28;20697;-44
2023/01/15 09:54:20;;;;;;;6.87;4.13;;;;;;;6.17;100.00;60274.75;6258119;28;20250;-43
2023/01/15 09:57:24;;;;;;;5.23;3.53;;;;;;;21.74;100.00;60274.75;6255010;28;20266;-44
2023/01/15 10:00:39;;;;;;;6.30;4.17;;;;;;;11.36;100.00;60274.75;6256290;28;20261;-44
2023/01/15 10:03:48;;;;;;;5.63;3.83;;;;;;;188.01;100.00;60274.75;6253576;28;20258;-44
2023/01/15 10:07:03;;;;;;;4.90;3.90;;;;;;;11.36;100.00;60274.75;6257742;28;20680;-44
2023/01/15 10:10:12;;;;;;;5.33;3.57;;;;;;;177.61;100.00;60274.75;6258111;28;20250;-44
2023/01/15 10:13:45;;;;;;;5.40;4.07;;;;;;;6.17;100.00;60274.75;6258160;28;20305;-46
2023/01/15 10:16:47;;;;;;;8.43;4.83;;;;;;;11.36;100.00;60274.75;6259162;28;20644;-45
2023/01/15 10:19:51;;;;;;;4.77;3.60;;;;;;;21.74;100.00;60274.75;6258368;28;20600;-44
2023/01/15 10:23:19;;;;;;;4.60;3.57;;;;;;;-144.22;100.00;60274.75;6257134;28;20287;-43
2023/01/15 10:26:27;;;;;;;5.80;3.10;;;;;;;-144.22;100.00;60274.75;6251898;28;20258;-43
2023/01/15 10:29:41;;;;;;;5.63;4.10;;;;;;;-144.22;100.00;60274.75;6257051;28;20790;-43
2023/01/15 10:32:53;;;;;;;3.67;3.13;;;;;;;11.36;100.00;60274.75;6218936;28;20241;-43
2023/01/15 10:36:25;;;;;;;5.87;3.60;;;;;;;16.55;100.00;60274.75;6240383;28;20240;-43
2023/01/15 10:39:40;;;;;;;5.37;3.27;;;;;;;188.01;100.00;60274.75;6254173;28;20236;-44
2023/01/15 10:43:01;;;;;;;4.93;3.77;;;;;;;-144.22;100.00;60274.75;6257959;28;20238;-43
2023/01/15 10:46:16;;;;;;;5.23;3.63;;;;;;;11.36;100.00;60274.75;6251410;28;20293;-43
2023/01/15 10:49:18;;;;;;;5.07;3.77;;;;;;;6.17;100.00;60274.75;6257686;28;20248;-43
2023/01/15 10:52:34;;;;;;;8.13;4.67;;;;;;;-144.22;100.00;60274.75;6259428;28;20296;-43
2023/01/15 10:55:51;;;;;;;7.23;4.07;;;;;;;-144.22;100.00;60274.75;6260258;28;20603;-43
2023/01/15 10:58:59;;;;;;;6.40;4.47;;;;;;;6.17;100.00;60274.75;6257007;28;20243;-43
2023/01/15 11:02:13;;;;;;;10.10;4.90;;;;;;;11.36;100.00;60274.75;6264464;28;20326;-43
2023/01/15 11:05:19;;;;;;;6.70;4.90;;;;;;;11.36;100.00;60274.75;6256557;28;20230;-44
2023/01/15 11:08:31;;;;;;;6.43;4.20;;;;;;;188.01;100.00;60274.75;6253860;28;20372;-44
2023/01/15 11:22:15;;;;;;;6.90;4.90;;;;;;;177.61;100.00;60274.75;6268232;28;20233;-44
2023/01/15 11:25:28;;;;;;;5.67;3.87;;;;;;;177.61;100.00;60274.75;6264812;28;20239;-44
2023/01/15 11:28:39;;;;;;;5.13;3.67;;;;;;;-144.22;100.00;60274.75;6263214;28;20234;-44
2023/01/15 11:31:41;;;;;;;5.47;3.97;;;;;;;-144.22;100.00;60274.75;6261357;28;20783;-44
2023/01/15 11:34:52;;;;;;;5.10;3.83;;;;;;;4.33;100.00;60274.75;6265721;28;20687;-44
2023/01/15 11:38:10;;;;;;;5.10;3.70;;;;;;;10.06;100.00;60274.75;6270081;28;20231;-44
2023/01/15 11:51:53;;;;;;;4.57;3.00;;;;;;;4.40;100.00;60274.75;6268474;28;20241;-44
2023/01/15 11:54:56;;;;;;;4.50;3.60;;;;;;;-144.22;100.00;60274.75;6266366;28;20735;-44
2023/01/15 11:58:00;;;;;;;5.57;3.50;;;;;;;-144.22;100.00;60274.75;6264640;28;20242;-44
2023/01/15 12:01:02;;;;;;;6.60;3.30;;;;;;;-144.22;100.00;60274.75;6261116;28;20235;-43
2023/01/15 12:04:21;;;;;;;5.20;3.43;;;;;;;-144.22;100.00;60274.75;6262144;28;20234;-44
2023/01/15 12:07:25;;;;;;;3.53;3.23;;;;;;;188.01;100.00;60274.75;6269865;28;20238;-44
2023/01/15 12:11:03;;;;;;;5.13;3.53;;;;;;;-144.22;100.00;60274.75;6267814;28;20242;-44
2023/01/15 12:14:53;;;;;;;4.87;3.53;;;;;;;-144.22;100.00;60274.75;6266130;28;20322;-44
2023/01/15 12:18:06;;;;;;;4.80;3.30;;;;;;;-144.22;100.00;60274.75;6269036;28;20235;-45
2023/01/15 12:21:34;;;;;;;4.77;3.83;;;;;;;-144.22;100.00;60274.75;6269461;28;20253;-44
2023/01/15 12:24:52;;;;;;;4.70;3.50;;;;;;;-144.22;100.00;60274.75;6265388;28;20216;-45
2023/01/15 12:28:16;;;;;;;4.47;3.27;;;;;;;-144.22;100.00;60274.75;6268731;28;20232;-44
2023/01/15 12:31:28;;;;;;;4.97;3.67;;;;;;;11.36;100.00;60274.75;6268278;28;20260;-44
2023/01/15 12:34:40;;;;;;;4.57;3.73;;;;;;;-144.22;100.00;60274.75;6269046;28;20231;-44
2023/01/15 12:38:00;;;;;;;5.73;3.53;;;;;;;-144.22;100.00;60274.75;6269794;28;20236;-44
2023/01/15 12:41:13;;;;;;;4.47;3.20;;;;;;;-144.22;100.00;60274.75;6268682;28;20235;-44
2023/01/15 12:48:32;;;;;;;4.23;3.47;;;;;;;11.36;100.00;60274.75;6265901;28;20342;-44
2023/01/15 12:51:46;;;;;;;4.53;3.50;;;;;;;188.01;100.00;60274.75;6158092;28;20239;-45
2023/01/15 12:55:18;;;;;;;3.90;3.47;;;;;;;-144.22;100.00;60274.75;6160313;28;20240;-44
2023/01/15 12:58:41;;;;;;;5.40;4.13;;;;;;;-144.22;100.00;60274.75;6157633;28;20257;-44
2023/01/15 13:02:19;;;;;;;5.27;4.10;;;;;;;188.01;100.00;60274.75;6159957;28;20226;-45
2023/01/15 13:05:27;;;;;;;5.30;3.60;;;;;;;-144.22;100.00;60274.75;6163963;28;20348;-44
2023/01/15 13:08:49;;;;;;;5.73;3.60;;;;;;;-144.22;100.00;60274.75;6162358;28;20237;-44
2023/01/15 13:11:52;;;;;;;4.53;3.50;;;;;;;6.17;100.00;60274.75;6151864;28;20721;-44
2023/01/15 13:14:54;;;;;;;7.07;3.90;;;;;;;11.36;100.00;60274.75;6149027;28;20447;-44
2023/01/15 13:18:33;;;;;;;5.53;3.43;;;;;;;11.36;100.00;60274.75;6146956;28;20226;-44
2023/01/15 13:21:37;;;;;;;3.90;3.20;;;;;;;4.87;100.00;60274.75;6149731;28;20440;-44
2023/01/15 13:24:55;;;;;;;4.03;3.27;;;;;;;-144.22;100.00;60274.75;6149903;28;20229;-44
2023/01/15 13:28:16;;;;;;;5.80;3.77;;;;;;;-144.22;100.00;60274.75;6237188;28;20234;-44
2023/01/15 13:31:47;;;;;;;5.13;3.60;;;;;;;-144.22;100.00;60274.75;6244469;28;20235;-45
2023/01/15 13:35:11;;;;;;;4.10;3.20;;;;;;;-144.22;100.00;60274.75;6252041;28;20235;-44
2023/01/15 13:38:21;;;;;;;6.00;3.17;;;;;;;4.87;100.00;60274.75;6250320;28;20235;-44
2023/01/15 13:44:52;;;;;;;4.90;3.63;;;;;;;11.36;100.00;60274.75;6238439;28;20277;-44
2023/01/15 13:48:03;;;;;;;4.77;3.40;;;;;;;6.17;100.00;60274.75;6239895;28;20227;-44
2023/01/15 13:51:06;;;;;;;4.40;3.53;;;;;;;4.18;100.00;60274.75;6240837;28;20295;-44
2023/01/15 13:54:15;;;;;;;5.33;3.47;;;;;;;188.01;100.00;60274.75;6243221;28;20377;-44
2023/01/15 13:57:37;;;;;;;3.80;3.00;;;;;;;188.01;100.00;60274.75;6220916;28;20862;-43
2023/01/15 14:00:40;;;;;;;4.20;3.20;;;;;;;-144.22;100.00;60274.75;6243071;28;20507;-45
2023/01/15 14:04:03;;;;;;;4.63;3.77;;;;;;;-144.22;100.00;60274.75;6245060;28;20234;-44
2023/01/15 14:07:17;;;;;;;5.27;3.37;;;;;;;11.36;100.00;60274.75;6239775;28;20405;-44
2023/01/15 14:10:34;;;;;;;5.07;3.30;;;;;;;-144.22;100.00;60274.75;6243685;28;20267;-44
2023/01/15 14:13:50;;;;;;;6.13;3.80;;;;;;;-144.22;100.00;60274.75;6239386;28;20776;-44
2023/01/15 14:17:12;;;;;;;6.03;3.53;;;;;;;11.36;100.00;60274.75;6242575;28;20707;-44
2023/01/15 14:20:36;;;;;;;5.20;3.90;;;;;;;21.74;100.00;60274.75;6241758;28;20242;-44
2023/01/15 14:23:55;;;;;;;6.33;4.00;;;;;;;188.01;100.00;60274.75;6244293;28;20240;-44
2023/01/15 14:27:04;;;;;;;5.00;3.20;;;;;;;4.06;100.00;60274.75;6237787;28;20249;-44
2023/01/15 14:30:18;;;;;;;4.17;3.33;;;;;;;21.74;100.00;60274.75;6238637;28;20266;-44
2023/01/15 14:33:31;;;;;;;4.90;3.53;;;;;;;-144.22;100.00;60274.75;6222453;28;20676;-43
2023/01/15 14:36:44;;;;;;;4.40;3.30;;;;;;;-144.22;100.00;60274.75;6243026;28;20719;-43
2023/01/15 14:39:57;;;;;;;5.10;3.67;;;;;;;11.36;100.00;60274.75;6242606;28;20223;-44
2023/01/15 14:43:16;;;;;;;4.20;3.30;;;;;;;177.61;100.00;60274.75;6218261;28;20243;-44
2023/01/15 14:46:40;;;;;;;3.83;3.07;;;;;;;11.36;100.00;60274.75;6244503;28;20227;-43
2023/01/15 14:49:48;;;;;;;5.97;3.80;;;;;;;177.61;100.00;60274.75;6251573;28;20576;-44
2023/01/15 14:52:55;;;;;;;5.07;3.47;;;;;;;-144.22;100.00;60274.75;6244360;28;20284;-43
2023/01/15 14:56:01;;;;;;;4.13;3.57;;;;;;;-144.22;100.00;60274.75;6247446;28;20449;-43
2023/01/15 14:59:16;;;;;;;4.47;3.63;;;;;;;-144.22;100.00;60274.75;6247476;28;20758;-43
2023/01/15 15:02:35;;;;;;;5.60;3.60;;;;;;;-144.22;100.00;60274.75;6249778;28;20230;-44
2023/01/15 15:05:42;;;;;;;6.50;3.83;;;;;;;-144.22;100.00;60274.75;6248007;28;20228;-43
2023/01/15 15:08:46;;;;;;;6.00;3.90;;;;;;;-144.22;100.00;60274.75;6253431;28;20238;-43
2023/01/15 15:15:15;;;;;;;4.57;3.80;;;;;;;-144.22;100.00;60274.75;6242741;28;20684;-43
2023/01/15 15:18:43;;;;;;;6.43;4.77;;;;;;;-144.22;100.00;60274.75;6242701;28;20308;-43
2023/01/15 15:21:47;;;;;;;6.60;4.73;;;;;;;-144.22;100.00;60274.75;6241542;28;20778;-43
2023/01/15 15:24:54;;;;;;;5.33;4.27;;;;;;;-144.22;100.00;60274.75;6247022;28;20235;-43